Latest Weather Observations for Daly Waters

IDD60801

Issued at 1:05 pm CST Wednesday 1 October 2014 (issued every 30 minutes, with the page automatically refreshed every 10 minutes)

About weather observations | Map of weather stations | Latest weather observations for NT | Other Formats
Station Details ID: 014626 Name: DALY WATERS AIRSTRIP Lat: -16.26 Lon: 133.38 Height: 209.84 m
Data from the previous 72 hours. | See also: Recent months at Daly Waters
Date/Time
CST
Temp
°C
App
Temp
°C
Dew
Point
Rel
Hum
%
Delta-T
°C
Wind Press
QNH
hPa
Press
MSL
hPa
Rain
since 9 am
mm
Dir
 
Spd
km/h
Gust
km/h
Spd
kts
Gust
kts
01/01:00pm 36.8 34.1 10.2 20 15.7 ENE 15 22 8 12 1012.6 1011.2 0.0
01/12:30pm 36.5 34.6 10.6 21 15.3 ENE 11 19 6 10 1013.3 1011.9 0.0
01/12:00pm 35.9 34.5 10.9 22 14.8 ENE 9 20 5 11 1014.1 1012.6 0.0
01/11:30am 34.2 33.3 12.5 27 13.1 NE 9 19 5 10 1014.5 1013.0 0.0
01/11:00am 33.6 32.7 13.6 29 12.2 N 11 22 6 12 1015.1 1013.6 0.0
01/10:30am 32.1 30.5 12.8 30 11.6 NNE 13 20 7 11 1015.8 1014.4 0.0
01/10:00am 31.1 29.7 13.4 34 10.7 NNE 13 24 7 13 1016.1 1014.7 0.0
01/09:30am 29.9 28.5 14.4 38 9.5 NNE 15 20 8 11 1016.2 1014.8 0.0
01/09:00am 28.2 28.1 16.1 47 7.5 NNE 11 19 6 10 1016.2 1015.1 0.0
01/08:30am 26.1 27.4 17.5 59 5.4 N 7 11 4 6 1016.1 1015.0 0.0
01/08:00am 25.4 27.0 18.3 65 4.5 NNE 7 11 4 6 1016.1 1015.0 0.0
01/07:30am 23.9 25.5 17.9 69 3.8 NE 6 7 3 4 1015.7 1014.5 0.0
01/07:00am 21.5 23.9 16.9 75 2.8 CALM 0 0 0 0 1015.5 1014.3 0.0
01/06:30am 19.7 21.1 14.5 72 3.0 CALM 0 0 0 0 1015.2 1014.0 0.0
01/06:00am 20.4 21.2 14.7 70 3.4 NNE 4 4 2 2 1014.9 1013.7 0.0
01/05:30am 21.0 22.1 14.6 67 3.8 E 2 4 1 2 1014.5 1013.3 0.0
01/05:00am 22.1 22.6 15.0 64 4.2 ENE 6 9 3 5 1014.4 1013.2 0.0
01/04:30am 21.7 22.1 13.6 60 4.7 E 4 6 2 3 1014.1 1012.9 0.0
01/04:00am 21.6 21.8 13.2 59 4.9 ENE 4 6 2 3 1013.6 1012.4 0.0
01/03:30am 21.6 22.1 12.7 57 5.1 E 2 6 1 3 1013.3 1012.2 0.0
01/03:00am 22.3 23.1 12.5 53 5.6 CALM 0 4 0 2 1013.3 1012.2 0.0
01/02:30am 22.9 22.6 12.8 53 5.8 NE 6 9 3 5 1013.4 1012.3 0.0
01/02:00am 23.8 23.5 12.8 50 6.4 NE 6 7 3 4 1013.6 1012.4 0.0
01/01:30am 24.2 23.7 12.2 47 6.9 NE 6 7 3 4 1013.9 1012.7 0.0
01/01:00am 24.6 23.9 11.5 44 7.5 NE 6 7 3 4 1014.1 1012.9 0.0
01/12:30am 25.7 25.1 12.2 43 7.8 NNE 7 13 4 7 1014.0 1012.8 0.0
01/12:00am 25.9 25.2 12.0 42 8.0 NNE 7 9 4 5 1014.3 1013.1 0.0
 
Date/Time
CST
Temp
°C
App
Temp
°C
Dew
Point
Rel
Hum
%
Delta-T
°C
Wind Press
QNH
hPa
Press
MSL
hPa
Rain
since 9 am
mm
Dir
 
Spd
km/h
Gust
km/h
Spd
kts
Gust
kts
30/11:30pm 26.8 25.6 11.7 39 8.7 NNE 9 19 5 10 1014.4 1013.2 0.0
30/11:00pm 27.9 25.5 11.5 36 9.5 NNE 15 24 8 13 1014.3 1013.1 0.0
30/10:30pm 28.6 26.4 12.1 36 9.7 NE 15 24 8 13 1014.3 1013.1 0.0
30/10:00pm 29.4 26.9 12.3 34 10.1 NE 17 32 9 17 1013.9 1012.7 0.0
30/09:30pm 30.2 28.5 12.6 34 10.5 NE 13 20 7 11 1013.4 1012.3 0.0
30/09:00pm 30.6 29.1 12.0 32 11.0 NE 11 17 6 9 1013.1 1012.0 0.0
30/08:30pm 28.2 27.4 10.9 34 9.9 ENE 6 6 3 3 1012.6 1011.5 0.0
30/08:00pm 28.7 28.7 9.9 31 10.6 CALM 0 0 0 0 1012.3 1011.2 0.0
30/07:30pm 30.6 29.9 10.0 28 11.8 NE 4 6 2 3 1011.9 1010.8 0.0
30/07:00pm 31.0 30.1 9.3 26 12.3 ENE 4 6 2 3 1011.6 1010.4 0.0
30/06:30pm 33.4 32.2 9.4 23 13.8 ENE 6 9 3 5 1011.3 1010.1 0.0
30/06:00pm 34.8 33.0 9.3 21 14.7 NE 9 17 5 9 1010.9 1009.7 0.0
30/05:30pm 35.1 33.7 9.5 21 14.8 NE 7 11 4 6 1010.6 1009.4 0.0
30/05:00pm 36.6 34.4 9.2 19 15.9 ENE 11 19 6 10 1010.4 1009.2 0.0
30/04:30pm 36.2 35.2 10.4 21 15.2 ENE 6 15 3 8 1010.3 1009.1 0.0
30/04:00pm 35.6 34.3 9.9 21 15.0 E 7 11 4 6 1010.5 1009.3 0.0
30/03:30pm 36.6 34.7 9.2 19 15.9 ENE 9 22 5 12 1010.6 1009.4 0.0
30/03:00pm 35.9 34.3 10.2 21 15.1 SE 9 17 5 9 1011.0 1009.8 0.0
30/02:30pm 36.5 34.3 9.2 19 15.8 E 11 17 6 9 1011.2 1010.0 0.0
30/02:00pm 35.1 33.7 9.5 21 14.8 ESE 7 19 4 10 1011.5 1010.3 0.0
30/01:30pm 35.3 33.8 10.4 22 14.6 NE 9 19 5 10 1011.9 1010.8 0.0
30/01:00pm 35.8 34.7 12.1 24 14.3 N 9 19 5 10 1012.5 1011.4 0.0
30/12:30pm 34.4 33.7 12.1 26 13.4 NNE 7 17 4 9 1013.3 1012.2 0.0
30/12:00pm 33.8 32.6 12.7 27 12.7 N 11 17 6 9 1014.1 1012.9 0.0
30/11:30am 33.1 32.2 13.7 31 11.9 N 11 19 6 10 1014.8 1013.6 0.0
30/11:00am 32.2 31.7 13.9 33 11.2 N 9 17 5 9 1015.3 1014.1 0.0
30/10:30am 30.9 30.1 14.1 36 10.2 NNE 11 17 6 9 1015.7 1014.5 0.0
30/10:00am 30.4 29.9 16.0 41 9.0 N 13 20 7 11 1016.0 1014.8 0.0
30/09:30am 28.8 29.6 17.3 49 7.3 N 9 17 5 9 1016.3 1015.2 0.0
30/09:00am 27.5 28.3 18.2 57 6.0 N 11 17 6 9 1016.3 1015.2 0.0
30/08:30am 26.2 26.9 18.9 64 4.7 N 13 19 7 10 1016.2 1015.1 0.0
30/08:00am 24.8 26.5 19.4 72 3.5 N 9 15 5 8 1016.1 1015.0 0.0
30/07:30am 23.0 25.6 19.2 79 2.4 N 4 6 2 3 1015.9 1014.7 0.0
30/07:00am 20.9 23.3 18.8 88 1.3 NW 4 4 2 2 1015.5 1014.3 0.0
30/06:30am 19.8 21.8 17.9 89 1.2 NNW 4 6 2 3 1014.9 1013.7 0.0
30/06:00am 19.0 21.1 16.2 84 1.7 CALM 0 0 0 0 1014.5 1013.3 0.0
30/05:30am 20.2 22.2 17.0 82 2.0 NNE 2 6 1 3 1014.2 1013.0 0.0
30/05:00am 21.7 23.5 18.3 81 2.1 NNE 6 9 3 5 1013.8 1012.6 0.0
30/04:30am 22.3 24.0 18.5 79 2.4 NNE 7 13 4 7 1013.4 1012.3 0.0
30/04:00am 22.6 24.3 18.4 77 2.7 NNE 7 13 4 7 1013.3 1012.2 0.0
30/03:30am 22.9 24.0 18.0 74 3.1 NNE 9 15 5 8 1013.2 1012.1 0.0
30/03:00am 23.1 24.0 17.6 71 3.4 NNE 9 15 5 8 1013.1 1012.0 0.0
30/02:30am 23.3 23.8 16.6 66 4.1 NNE 9 13 5 7 1012.8 1011.7 0.0
30/02:00am 23.7 23.7 15.2 59 5.1 NNE 9 15 5 8 1012.8 1011.7 0.0
30/01:30am 24.4 24.1 14.5 54 5.9 NNE 9 15 5 8 1012.9 1011.8 0.0
30/01:00am 25.2 23.9 13.7 49 6.8 NE 13 19 7 10 1012.9 1011.8 0.0
30/12:30am 24.5 23.6 12.5 47 7.0 NE 9 15 5 8 1013.0 1011.9 0.0
30/12:29am 24.4 23.5 12.7 48 6.8 NE 9 15 5 8 1013.0 1011.9 0.0
30/12:00am 19.4 17.5 6.8 44 6.4 ENE 6 7 3 4 1013.1 1012.0 0.0
 
Date/Time
CST
Temp
°C
App
Temp
°C
Dew
Point
Rel
Hum
%
Delta-T
°C
Wind Press
QNH
hPa
Press
MSL
hPa
Rain
since 9 am
mm
Dir
 
Spd
km/h
Gust
km/h
Spd
kts
Gust
kts
29/11:30pm 20.3 19.5 6.6 41 7.0 CALM 0 4 0 2 1013.1 1012.0 0.0
29/11:00pm 21.2 19.1 5.9 37 7.7 NE 6 6 3 3 1013.2 1012.1 0.0
29/10:30pm 22.8 20.7 5.7 33 8.7 NE 6 6 3 3 1013.2 1012.1 0.0
29/10:00pm 23.6 21.4 6.4 33 8.9 ENE 7 11 4 6 1013.4 1012.3 0.0
29/09:30pm 21.2 19.5 5.9 37 7.7 ENE 4 7 2 4 1012.8 1011.7 0.0
29/09:00pm 20.9 18.8 5.7 37 7.6 ENE 6 7 3 4 1012.4 1011.3 0.0
29/08:30pm 21.4 20.0 3.6 31 8.6 CALM 0 0 0 0 1012.0 1010.9 0.0
29/08:00pm 22.8 21.4 3.4 28 9.5 CALM 0 0 0 0 1011.7 1010.5 0.0
29/07:30pm 24.3 22.3 2.5 24 10.6 N 2 4 1 2 1011.3 1010.1 0.0
29/07:00pm 26.8 24.9 2.7 21 11.9 N 2 4 1 2 1011.0 1009.8 0.0
29/06:30pm 30.6 28.4 1.0 15 14.6 N 2 4 1 2 1010.7 1009.5 0.0
29/06:00pm 34.9 32.4 1.3 12 17.1 ESE 4 6 2 3 1010.3 1009.1 0.0
29/05:30pm 35.9 32.9 0.9 11 17.8 E 6 15 3 8 1010.0 1008.8 0.0
29/05:00pm 36.2 33.6 1.1 11 17.9 NNE 4 9 2 5 1009.8 1008.6 0.0
29/04:30pm 36.5 33.6 1.3 11 18.1 ENE 6 15 3 8 1009.8 1008.6 0.0
29/04:00pm 36.4 32.5 1.2 11 18.0 NNE 11 24 6 13 1009.9 1008.7 0.0
29/03:30pm 36.7 34.2 1.5 11 18.2 NNW 4 9 2 5 1010.0 1008.8 0.0
29/03:00pm 36.5 33.6 1.3 11 18.1 E 6 13 3 7 1010.2 1009.0 0.0
29/02:30pm 36.3 33.6 2.4 12 17.7 W 6 15 3 8 1010.4 1009.2 0.0
29/02:00pm 36.5 32.8 2.5 12 17.8 E 11 17 6 9 1010.8 1009.6 0.0
29/01:30pm 36.4 32.0 2.5 12 17.7 ENE 15 24 8 13 1011.4 1010.2 0.0
29/01:00pm 34.9 31.0 1.3 12 17.1 N 11 22 6 12 1011.9 1010.8 0.0
29/12:30pm 35.5 31.5 2.9 13 17.1 NNE 13 22 7 12 1012.6 1011.5 0.0
29/12:00pm 35.2 31.5 4.7 15 16.4 N 13 26 7 14 1013.2 1012.1 0.0
29/11:30am 34.0 31.8 6.3 18 15.2 N 7 13 4 7 1013.8 1012.6 0.0
29/11:00am 33.0 30.1 6.3 19 14.6 N 11 20 6 11 1014.2 1013.0 0.0
29/10:30am 32.0 29.2 7.0 21 13.7 N 11 17 6 9 1014.5 1013.3 0.0
29/10:00am 31.6 28.3 6.6 21 13.6 N 13 20 7 11 1014.8 1013.6 0.0
29/09:30am 30.3 27.7 9.2 27 11.9 NNW 13 20 7 11 1015.0 1013.8 0.0
29/09:00am 28.7 27.2 10.4 32 10.4 NNW 9 15 5 8 1015.0 1013.8 0.0
29/08:30am 25.7 24.3 9.5 36 9.0 N 7 13 4 7 1014.9 1013.7 0.0
29/08:00am 23.4 21.9 9.0 40 7.8 NNE 7 11 4 6 1014.6 1013.4 0.0
29/07:30am 19.1 18.0 6.9 45 6.2 ENE 2 6 1 3 1014.4 1013.2 0.0
29/07:28am 18.6 17.8 6.4 45 6.1 CALM 0 6 0 3 1014.4 1013.2 0.0
29/07:00am 13.4 12.2 4.8 56 4.0 CALM 0 0 0 0 1014.1 1012.9 0.0
29/06:30am 12.0 10.7 4.0 58 3.6 CALM 0 0 0 0 1013.8 1012.6 0.0
29/06:00am 11.9 10.5 3.7 57 3.7 CALM 0 0 0 0 1013.3 1012.2 0.0
29/05:30am 12.1 10.7 3.3 55 3.9 CALM 0 0 0 0 1012.9 1011.8 0.0
29/05:00am 12.2 10.7 3.2 54 4.0 CALM 0 0 0 0 1012.6 1011.5 0.0
29/04:30am 12.5 11.0 2.9 52 4.3 CALM 0 0 0 0 1012.3 1011.2 0.0
29/04:00am 13.0 11.5 2.8 50 4.5 CALM 0 0 0 0 1012.1 1011.0 0.0
29/03:30am 13.3 11.7 2.5 48 4.8 CALM 0 0 0 0 1012.0 1010.9 0.0
29/03:00am 13.5 11.1 2.1 46 5.0 ENE 4 4 2 2 1012.1 1011.0 0.0
29/02:30am 14.0 11.6 2.0 44 5.3 ENE 4 4 2 2 1012.2 1011.1 0.0
29/02:00am 14.3 11.7 1.2 41 5.7 ENE 4 6 2 3 1012.4 1011.3 0.0
29/01:30am 14.8 12.2 1.0 39 6.0 ENE 4 4 2 2 1012.7 1011.6 0.0
29/01:00am 15.4 12.8 0.8 37 6.4 ENE 4 4 2 2 1013.0 1011.9 0.0
29/12:30am 16.5 13.7 -0.7 31 7.3 NE 4 6 2 3 1013.3 1012.2 0.0
29/12:00am 17.7 14.7 -1.5 27 8.1 E 4 6 2 3 1013.7 1012.5 0.0
 
Date/Time
CST
Temp
°C
App
Temp
°C
Dew
Point
Rel
Hum
%
Delta-T
°C
Wind Press
QNH
hPa
Press
MSL
hPa
Rain
since 9 am
mm
Dir
 
Spd
km/h
Gust
km/h
Spd
kts
Gust
kts
28/11:30pm 20.4 17.7 -2.6 21 9.8 ENE 2 6 1 3 1013.7 1012.5 0.0
28/11:00pm 22.9 18.6 0.7 23 10.3 ENE 13 20 7 11 1013.6 1012.4 0.0
28/10:56pm 21.9 18.1 1.6 26 9.5 ENE 11 24 6 13 1013.8 1012.6 0.0
28/10:30pm 16.9 14.3 1.0 34 7.1 SE 4 6 2 3 1013.1 1012.0 0.0
28/10:00pm 17.5 14.9 1.1 33 7.3 SE 4 4 2 2 1012.9 1011.8 0.0
28/09:30pm 18.6 16.0 0.7 30 8.0 S 4 7 2 4 1012.8 1011.7 0.0
28/09:00pm 19.0 16.3 0.6 29 8.3 SSE 4 4 2 2 1012.4 1011.3 0.0
28/08:30pm 19.9 17.2 0.4 27 8.8 S 4 6 2 3 1012.1 1011.0 0.0
28/08:00pm 21.3 19.3 -0.1 24 9.6 CALM 0 0 0 0 1011.8 1010.6 0.0
28/07:30pm 23.1 20.6 -1.1 20 10.9 S 2 4 1 2 1011.5 1010.3 0.0
28/07:00pm 25.9 23.2 -2.7 15 12.7 S 2 6 1 3 1011.2 1010.0 0.0
28/06:56pm 26.2 23.5 -2.4 15 12.8 S 2 4 1 2 1011.2 1010.0 0.0
28/06:30pm 31.3 28.2 -2.6 11 15.8 S 4 6 2 3 1011.0 1009.8 0.0
28/06:00pm 34.9 31.4 -1.2 10 17.7 SE 7 15 4 8 1010.8 1009.6 0.0
28/05:30pm 35.9 32.5 -1.9 9 18.4 S 6 11 3 6 1010.5 1009.3 0.0
28/05:00pm 36.6 33.3 -1.4 9 18.7 E 6 11 3 6 1010.3 1009.1 0.0
28/04:30pm 37.0 34.1 -1.1 9 18.9 S 4 9 2 5 1010.3 1009.1 0.0
28/04:00pm 36.8 33.3 -1.2 9 18.8 NE 7 13 4 7 1010.5 1009.3 0.0
28/03:30pm 36.8 33.3 -1.2 9 18.8 SSE 7 17 4 9 1010.9 1009.7 0.0
28/03:00pm 36.6 32.0 -1.4 9 18.7 SE 13 24 7 13 1011.2 1010.0 0.0
28/02:30pm 37.2 33.0 -0.9 9 19.0 NE 11 19 6 10 1011.7 1010.5 0.0
28/02:00pm 35.9 32.1 -0.5 10 18.1 SSW 9 19 5 10 1012.2 1011.1 0.0
28/01:30pm 35.8 31.7 -0.5 10 18.0 ENE 11 20 6 11 1012.7 1011.6 0.0

Other Formats:

Comma delimited format used in spreadsheet applications
http://www.bom.gov.au/fwo/IDD60801/IDD60801.94234.axf

JavaScript Object Notation format (JSON) in row-major order
http://www.bom.gov.au/fwo/IDD60801/IDD60801.94234.json